createdAt,value
2022-11-13T00:01:18.559Z,101818.8
2022-11-13T00:03:22.946Z,101816.78
2022-11-13T00:05:27.331Z,101815.27
2022-11-13T00:07:31.821Z,101818.39
2022-11-13T00:09:36.243Z,101813.35
2022-11-13T00:11:40.617Z,101807.73
2022-11-13T00:13:44.985Z,101808.73
2022-11-13T00:15:49.397Z,101813.48
2022-11-13T00:17:53.795Z,101811.61
2022-11-13T00:19:58.174Z,101806.45
2022-11-13T00:22:02.554Z,101805.88
2022-11-13T00:24:06.969Z,101813.33
2022-11-13T00:26:11.355Z,101814.16
2022-11-13T00:28:15.724Z,101814.52
2022-11-13T00:30:20.779Z,101817.58
2022-11-13T00:32:25.155Z,101824.03
2022-11-13T00:34:59.641Z,101817.52
2022-11-13T00:37:04.010Z,101819.01
2022-11-13T00:39:08.389Z,101819.1
2022-11-13T00:41:12.775Z,101814.81
2022-11-13T00:43:17.172Z,101811.22
2022-11-13T00:45:21.553Z,101811.19
2022-11-13T00:47:25.920Z,101807.83
2022-11-13T00:49:30.296Z,101807.97
2022-11-13T00:51:34.698Z,101804.7
2022-11-13T00:53:39.167Z,101804.17
2022-11-13T00:55:43.551Z,101805.6
2022-11-13T00:57:47.918Z,101801.47
2022-11-13T00:59:52.439Z,101798.47
2022-11-13T01:01:56.926Z,101796.06
2022-11-13T01:04:01.377Z,101794.19
2022-11-13T01:06:05.739Z,101785.68
2022-11-13T01:08:10.115Z,101784.27
2022-11-13T01:10:14.516Z,101783.73
2022-11-13T01:12:19.099Z,101782.64
2022-11-13T01:14:23.480Z,101774.66
2022-11-13T01:16:27.875Z,101775.7
2022-11-13T01:18:32.213Z,101777.09
2022-11-13T01:20:36.584Z,101772.06
2022-11-13T01:22:40.995Z,101770.38
2022-11-13T01:24:45.395Z,101768.81
2022-11-13T01:26:49.768Z,101762.48
2022-11-13T01:28:54.250Z,101767.62
2022-11-13T01:30:58.745Z,101762.24
2022-11-13T01:33:03.142Z,101761.52
2022-11-13T01:35:07.526Z,101757.8
2022-11-13T01:37:11.933Z,101755.51
2022-11-13T01:39:16.306Z,101758.69
2022-11-13T01:41:24.608Z,101757.47
2022-11-13T01:43:28.989Z,101749.9
2022-11-13T01:45:33.346Z,101752.59
2022-11-13T01:47:37.714Z,101750.27
2022-11-13T01:49:42.085Z,101743.23
2022-11-13T01:51:46.467Z,101743.84
2022-11-13T01:53:50.812Z,101743.14
2022-11-13T01:55:55.186Z,101740.7
2022-11-13T01:57:59.552Z,101741.5
2022-11-13T02:00:03.914Z,101741.65
2022-11-13T02:02:08.412Z,101738.54
2022-11-13T02:04:12.892Z,101737.22
2022-11-13T02:06:17.286Z,101737.78
2022-11-13T02:08:21.769Z,101743.19
2022-11-13T02:10:26.141Z,101735.9
2022-11-13T02:12:30.516Z,101735.23
2022-11-13T02:14:34.876Z,101737.67
2022-11-13T02:16:39.288Z,101735.58
2022-11-13T02:18:43.636Z,101738.56
2022-11-13T02:20:48.045Z,101734.77
2022-11-13T02:22:52.461Z,101733.7
2022-11-13T02:24:56.859Z,101731.53
2022-11-13T02:27:01.211Z,101730.37
2022-11-13T02:29:05.614Z,101732.8
2022-11-13T02:31:09.991Z,101725.88
2022-11-13T02:33:14.415Z,101721.5
2022-11-13T02:35:18.758Z,101717.86
2022-11-13T02:37:23.094Z,101715.13
2022-11-13T02:39:27.487Z,101711.7
2022-11-13T02:41:31.866Z,101707.33
2022-11-13T02:43:36.237Z,101704.75
2022-11-13T02:45:40.575Z,101699.7
2022-11-13T02:47:44.951Z,101701.09
2022-11-13T02:49:49.322Z,101700.95
2022-11-13T02:51:53.648Z,101700.91
2022-11-13T02:53:58.040Z,101699.92
2022-11-13T02:56:02.392Z,101699.5
2022-11-13T02:58:06.754Z,101695.75
2022-11-13T03:00:15.116Z,101702.86
2022-11-13T03:02:19.497Z,101692.31
2022-11-13T03:04:23.836Z,101689.11
2022-11-13T03:06:28.312Z,101683.54
2022-11-13T03:08:35.198Z,101689.08
2022-11-13T03:10:41.480Z,101685.66
2022-11-13T03:12:45.926Z,101681.39
2022-11-13T03:14:50.302Z,101681
2022-11-13T03:16:54.694Z,101680.02
2022-11-13T03:18:59.045Z,101681.5
2022-11-13T03:21:03.392Z,101675.91
2022-11-13T03:23:07.790Z,101675.23
2022-11-13T03:25:12.360Z,101676.91
2022-11-13T03:27:16.727Z,101672.88
2022-11-13T03:29:21.139Z,101672.31
2022-11-13T03:31:25.752Z,101672.92
2022-11-13T03:33:30.187Z,101665.91
2022-11-13T03:35:46.645Z,101662
2022-11-13T03:37:51.396Z,101664.74
2022-11-13T03:39:55.767Z,101665.38
2022-11-13T03:42:00.164Z,101663.5
2022-11-13T03:44:04.574Z,101658.38
2022-11-13T03:46:08.968Z,101659.66
2022-11-13T03:48:13.350Z,101657.77
2022-11-13T03:50:17.809Z,101660.53
2022-11-13T03:52:22.207Z,101653.69
2022-11-13T03:54:26.576Z,101654.09
2022-11-13T03:56:30.997Z,101651.81
2022-11-13T03:58:40.346Z,101656.55
2022-11-13T04:00:50.518Z,101657.8
2022-11-13T04:02:54.857Z,101652.55
2022-11-13T04:04:59.259Z,101652.05
2022-11-13T04:07:03.756Z,101651.84
2022-11-13T04:09:08.267Z,101650.53
2022-11-13T04:11:12.579Z,101652.95
2022-11-13T04:13:16.937Z,101660.63
2022-11-13T04:15:21.305Z,101660.6
2022-11-13T04:17:25.657Z,101664.17
2022-11-13T04:19:30.001Z,101663.38
2022-11-13T04:21:34.372Z,101660.19
2022-11-13T04:23:38.771Z,101664.63
2022-11-13T04:25:43.131Z,101663.66
2022-11-13T04:27:47.482Z,101660.49
2022-11-13T04:29:51.859Z,101665.38
2022-11-13T04:31:56.245Z,101664.66
2022-11-13T04:34:00.619Z,101659.84
2022-11-13T04:36:04.963Z,101662.52
2022-11-13T04:38:09.327Z,101660.61
2022-11-13T04:40:13.733Z,101660.14
2022-11-13T04:42:18.108Z,101662.48
2022-11-13T04:44:22.513Z,101663.77
2022-11-13T04:46:26.875Z,101667.31
2022-11-13T04:48:31.807Z,101663.54
2022-11-13T04:50:36.159Z,101656.13
2022-11-13T04:52:40.529Z,101659.59
2022-11-13T04:54:44.880Z,101667.16
2022-11-13T04:56:49.239Z,101671.58
2022-11-13T04:58:53.591Z,101668.13
2022-11-13T05:00:57.952Z,101668.4
2022-11-13T05:03:02.305Z,101669.22
2022-11-13T05:05:06.736Z,101668.93
2022-11-13T05:07:11.315Z,101666.53
2022-11-13T05:09:15.819Z,101661.64
2022-11-13T05:11:20.173Z,101665.28
2022-11-13T05:13:24.486Z,101663.4
2022-11-13T05:15:28.850Z,101666.13
2022-11-13T05:17:33.180Z,101670.91
2022-11-13T05:19:37.549Z,101670.38
2022-11-13T05:21:41.887Z,101668.55
2022-11-13T05:23:46.249Z,101670.53
2022-11-13T05:25:50.630Z,101674.66
2022-11-13T05:27:54.989Z,101674.31
2022-11-13T05:29:59.361Z,101667.22
2022-11-13T05:32:03.698Z,101659.77
2022-11-13T05:34:08.084Z,101664.13
2022-11-13T05:36:12.484Z,101665.17
2022-11-13T05:38:16.837Z,101663.35
2022-11-13T05:40:21.170Z,101658.17
2022-11-13T05:42:25.536Z,101658.27
2022-11-13T05:44:29.896Z,101658.08
2022-11-13T05:46:34.248Z,101660.83
2022-11-13T05:48:38.627Z,101654.94
2022-11-13T05:50:42.980Z,101655.84
2022-11-13T05:52:47.330Z,101656
2022-11-13T05:54:51.707Z,101658.36
2022-11-13T05:56:56.068Z,101654.16
2022-11-13T05:59:00.433Z,101649.15
2022-11-13T06:01:04.785Z,101653
2022-11-13T06:03:09.135Z,101648.73
2022-11-13T06:05:13.501Z,101646.13
2022-11-13T06:07:18.034Z,101643.67
2022-11-13T06:09:22.632Z,101646.05
2022-11-13T06:11:27.024Z,101644.89
2022-11-13T06:13:31.387Z,101638.36
2022-11-13T06:15:35.737Z,101638.58
2022-11-13T06:17:40.092Z,101634.98
2022-11-13T06:19:44.469Z,101635.81
2022-11-13T06:21:48.859Z,101636.53
2022-11-13T06:23:53.195Z,101635.73
2022-11-13T06:25:57.578Z,101634.52
2022-11-13T06:28:01.934Z,101639.52
2022-11-13T06:30:06.281Z,101638.22
2022-11-13T06:32:10.641Z,101637.3
2022-11-13T06:34:15.003Z,101639.77
2022-11-13T06:36:19.380Z,101638.27
2022-11-13T06:38:23.754Z,101644.42
2022-11-13T06:40:28.159Z,101641.8
2022-11-13T06:42:32.553Z,101637.41
2022-11-13T06:44:37.066Z,101639.02
2022-11-13T06:46:41.462Z,101638.46
2022-11-13T06:48:45.795Z,101633.46
2022-11-13T06:50:50.139Z,101633.7
2022-11-13T06:52:54.541Z,101635.95
2022-11-13T06:54:58.897Z,101636.83
2022-11-13T06:57:03.255Z,101635.59
2022-11-13T06:59:09.650Z,101640.97
2022-11-13T07:01:14.203Z,101634.1
2022-11-13T07:03:18.660Z,101635.78
2022-11-13T07:05:23.051Z,101630.84
2022-11-13T07:07:27.606Z,101628.38
2022-11-13T07:09:32.146Z,101626.55
2022-11-13T07:11:36.476Z,101629.07
2022-11-13T07:13:44.002Z,101628.95
2022-11-13T07:15:48.361Z,101629.11
2022-11-13T07:17:52.779Z,101620.73
2022-11-13T07:19:57.303Z,101622.08
2022-11-13T07:22:01.665Z,101626.25
2022-11-13T07:24:06.087Z,101625.93
2022-11-13T07:26:10.480Z,101629.35
2022-11-13T07:28:14.865Z,101628.67
2022-11-13T07:30:19.375Z,101631.31
2022-11-13T07:32:23.761Z,101626.31
2022-11-13T07:34:28.173Z,101630.59
2022-11-13T07:36:32.521Z,101627.31
2022-11-13T07:38:36.997Z,101624.47
2022-11-13T07:40:41.405Z,101622.67
2022-11-13T07:42:45.743Z,101622.45
2022-11-13T07:44:55.869Z,101622.38
2022-11-13T07:47:00.262Z,101621.48
2022-11-13T07:49:04.644Z,101614.08
2022-11-13T07:51:09.021Z,101615.53
2022-11-13T07:53:13.399Z,101621.04
2022-11-13T07:55:17.807Z,101623.27
2022-11-13T07:57:22.185Z,101628.09
2022-11-13T07:59:26.613Z,101620.88
2022-11-13T08:01:31.136Z,101616.27
2022-11-13T08:03:35.661Z,101608.52
2022-11-13T08:05:40.018Z,101611.67
2022-11-13T08:07:51.166Z,101611.89
2022-11-13T08:09:55.843Z,101611.48
2022-11-13T08:12:00.217Z,101608.83
2022-11-13T08:14:04.601Z,101608.97
2022-11-13T08:16:08.979Z,101610.76
2022-11-13T08:18:13.410Z,101600.19
2022-11-13T08:20:17.781Z,101605.8
2022-11-13T08:22:22.110Z,101606.45
2022-11-13T08:24:26.499Z,101608.52
2022-11-13T08:26:30.887Z,101608.55
2022-11-13T08:28:35.296Z,101612
2022-11-13T08:30:39.684Z,101609.7
2022-11-13T08:32:44.083Z,101624.08
2022-11-13T08:34:48.472Z,101619.9
2022-11-13T08:36:52.872Z,101612.13
2022-11-13T08:38:57.355Z,101624.82
2022-11-13T08:41:09.491Z,101622.7
2022-11-13T08:43:14.347Z,101607.97
2022-11-13T08:45:18.832Z,101605.31
2022-11-13T08:47:29.655Z,101610.34
2022-11-13T08:49:34.179Z,101607.84
2022-11-13T08:51:38.565Z,101601.51
2022-11-13T08:53:42.979Z,101604.02
2022-11-13T08:55:47.395Z,101605.91
2022-11-13T08:57:51.771Z,101613.54
2022-11-13T08:59:56.163Z,101607.46
2022-11-13T09:02:00.627Z,101614
2022-11-13T09:04:05.125Z,101612.45
2022-11-13T09:06:09.667Z,101613.23
2022-11-13T09:08:14.070Z,101614.73
2022-11-13T09:10:18.452Z,101609.05
2022-11-13T09:12:22.824Z,101606.69
2022-11-13T09:14:27.237Z,101609.3
2022-11-13T09:16:31.758Z,101615.15
2022-11-13T09:18:36.183Z,101612.79
2022-11-13T09:20:40.592Z,101617.68
2022-11-13T09:22:45.006Z,101616.75
2022-11-13T09:24:49.411Z,101615.56
2022-11-13T09:26:53.817Z,101617.19
2022-11-13T09:28:58.208Z,101610.97
2022-11-13T09:31:02.629Z,101616.66
2022-11-13T09:33:07.020Z,101612.54
2022-11-13T09:35:11.456Z,101611.37
2022-11-13T09:37:15.818Z,101616.11
2022-11-13T09:39:20.238Z,101613.83
2022-11-13T09:41:24.627Z,101613.55
2022-11-13T09:43:29.003Z,101612.38
2022-11-13T09:45:33.450Z,101611.75
2022-11-13T09:47:37.844Z,101612
2022-11-13T09:49:42.239Z,101612.6
2022-11-13T09:51:46.626Z,101611.6
2022-11-13T09:53:51.039Z,101614.23
2022-11-13T09:55:55.439Z,101613.3
2022-11-13T09:57:59.821Z,101608.87
2022-11-13T10:00:04.318Z,101610.94
2022-11-13T10:02:08.796Z,101606.27
2022-11-13T10:04:15.570Z,101606.84
2022-11-13T10:06:19.970Z,101599.64
2022-11-13T10:08:24.380Z,101603.82
2022-11-13T10:10:28.975Z,101604.4
2022-11-13T10:12:33.340Z,101602.98
2022-11-13T10:14:37.858Z,101604.85
2022-11-13T10:16:42.273Z,101603.64
2022-11-13T10:18:46.661Z,101605.27
2022-11-13T10:20:51.060Z,101604.19
2022-11-13T10:22:55.441Z,101604.51
2022-11-13T10:24:59.800Z,101598.73
2022-11-13T10:27:04.193Z,101601.22
2022-11-13T10:29:08.815Z,101594.83
2022-11-13T10:31:13.293Z,101596.02
2022-11-13T10:33:17.646Z,101594.53
2022-11-13T10:35:22.011Z,101589.63
2022-11-13T10:37:26.386Z,101591.88
2022-11-13T10:39:30.842Z,101589.27
2022-11-13T10:41:35.272Z,101583.75
2022-11-13T10:43:39.638Z,101581.52
2022-11-13T10:45:44.002Z,101581.77
2022-11-13T10:48:05.584Z,101584.34
2022-11-13T10:50:09.980Z,101585.16
2022-11-13T10:52:14.397Z,101581.91
2022-11-13T10:54:18.765Z,101577.73
2022-11-13T10:56:23.138Z,101573.66
2022-11-13T10:58:28.366Z,101575.45
2022-11-13T11:00:33.552Z,101570.94
2022-11-13T11:02:37.977Z,101568.88
2022-11-13T11:04:42.402Z,101570.45
2022-11-13T11:07:21.182Z,101563.84
2022-11-13T11:09:26.205Z,101563.99
2022-11-13T11:11:30.550Z,101564.41
2022-11-13T11:13:34.981Z,101566.5
2022-11-13T11:15:39.385Z,101566.98
2022-11-13T11:17:43.751Z,101567.3
2022-11-13T11:19:48.127Z,101563.44
2022-11-13T11:21:52.480Z,101564.13
2022-11-13T11:23:57.576Z,101560.16
2022-11-13T11:26:01.987Z,101561.88
2022-11-13T11:28:06.370Z,101553.09
2022-11-13T11:30:10.768Z,101551.69
2022-11-13T11:32:15.146Z,101544.81
2022-11-13T11:34:19.511Z,101543.87
2022-11-13T11:36:23.906Z,101542.27
2022-11-13T11:38:29.239Z,101542.05
2022-11-13T11:40:34.102Z,101538.31
2022-11-13T11:42:38.386Z,101538.31
2022-11-13T11:44:42.678Z,101535.36
2022-11-13T11:46:47.954Z,101538.45
2022-11-13T11:48:52.234Z,101531.44
2022-11-13T11:50:56.564Z,101529.51
2022-11-13T11:53:00.831Z,101533.27
2022-11-13T11:55:05.191Z,101525.84
2022-11-13T11:57:09.874Z,101517.36
2022-11-13T11:59:14.422Z,101517.8
2022-11-13T12:01:18.830Z,101515.04
2022-11-13T12:03:23.231Z,101517.29
2022-11-13T12:05:27.813Z,101514.3
2022-11-13T12:07:32.465Z,101511.52
2022-11-13T12:09:36.837Z,101510.4
2022-11-13T12:11:41.297Z,101502.47
2022-11-13T12:13:45.715Z,101503.91
2022-11-13T12:15:50.096Z,101500.95
2022-11-13T12:17:54.502Z,101500.46
2022-11-13T12:19:58.847Z,101497.2
2022-11-13T12:22:03.278Z,101496.43
2022-11-13T12:24:07.794Z,101495.97
2022-11-13T12:26:12.176Z,101491.16
2022-11-13T12:28:16.591Z,101490.03
2022-11-13T12:30:20.949Z,101491.25
2022-11-13T12:32:25.303Z,101490.33
2022-11-13T12:34:29.704Z,101488.58
2022-11-13T12:36:34.167Z,101491.97
2022-11-13T12:38:38.547Z,101487.66
2022-11-13T12:40:45.888Z,101485.09
2022-11-13T12:42:50.298Z,101486.8
2022-11-13T12:44:54.682Z,101483.39
2022-11-13T12:46:59.093Z,101478.48
2022-11-13T12:49:03.505Z,101478.75
2022-11-13T12:51:07.916Z,101477.56
2022-11-13T12:53:12.275Z,101475.88
2022-11-13T12:55:16.701Z,101472.98
2022-11-13T12:57:22.621Z,101470.97
2022-11-13T12:59:33.721Z,101468.08
2022-11-13T13:01:38.298Z,101466.23
2022-11-13T13:03:42.782Z,101461.19
2022-11-13T13:05:47.166Z,101456.45
2022-11-13T13:07:51.540Z,101448.3
2022-11-13T13:09:55.966Z,101446.57
2022-11-13T13:12:00.305Z,101446.88
2022-11-13T13:14:04.667Z,101447.52
2022-11-13T13:16:09.065Z,101442.55
2022-11-13T13:18:13.453Z,101439.58
2022-11-13T13:20:17.776Z,101437.2
2022-11-13T13:22:22.164Z,101434.26
2022-11-13T13:24:26.572Z,101433.69
2022-11-13T13:26:31.025Z,101430.17
2022-11-13T13:28:35.389Z,101428.25
2022-11-13T13:30:39.797Z,101424.12
2022-11-13T13:32:44.191Z,101423.95
2022-11-13T13:34:48.541Z,101420.81
2022-11-13T13:36:53.039Z,101416.16
2022-11-13T13:38:57.502Z,101408.87
2022-11-13T13:41:01.880Z,101403.97
2022-11-13T13:43:06.244Z,101410.62
2022-11-13T13:45:10.627Z,101408.03
2022-11-13T13:47:15.051Z,101408.69
2022-11-13T13:49:19.486Z,101412.5
2022-11-13T13:51:23.860Z,101409.7
2022-11-13T13:53:28.280Z,101413.26
2022-11-13T13:55:32.695Z,101407.72
2022-11-13T13:57:37.106Z,101411.54
2022-11-13T13:59:41.570Z,101408.3
2022-11-13T14:01:46.002Z,101414.73
2022-11-13T14:03:50.464Z,101417.09
2022-11-13T14:06:02.734Z,101413.03
2022-11-13T14:08:08.524Z,101414.25
2022-11-13T14:10:12.938Z,101414.76
2022-11-13T14:12:17.315Z,101415.8
2022-11-13T14:14:21.704Z,101411.27
2022-11-13T14:16:26.084Z,101410.22
2022-11-13T14:18:30.950Z,101417.91
2022-11-13T14:20:35.374Z,101409.69
2022-11-13T14:22:39.708Z,101411.59
2022-11-13T14:24:44.277Z,101411.13
2022-11-13T14:26:48.772Z,101408.88
2022-11-13T14:28:54.646Z,101406
2022-11-13T14:30:59.038Z,101408.39
2022-11-13T14:33:03.430Z,101404.47
2022-11-13T14:35:07.801Z,101407.19
2022-11-13T14:37:12.135Z,101404.6
2022-11-13T14:39:16.711Z,101404.13
2022-11-13T14:41:21.099Z,101400.09
2022-11-13T14:43:25.411Z,101404.33
2022-11-13T14:45:30.338Z,101409.78
2022-11-13T14:47:34.747Z,101403.86
2022-11-13T14:49:39.109Z,101404.78
2022-11-13T14:51:43.495Z,101400.86
2022-11-13T14:53:47.900Z,101396.53
2022-11-13T14:55:52.291Z,101393.44
2022-11-13T14:57:56.664Z,101393.02
2022-11-13T15:00:01.055Z,101394.19
2022-11-13T15:02:05.451Z,101390.95
2022-11-13T15:04:09.857Z,101385.55
2022-11-13T15:06:14.278Z,101385.3
2022-11-13T15:08:19.145Z,101387.08
2022-11-13T15:10:23.528Z,101384.89
2022-11-13T15:12:27.953Z,101381.41
2022-11-13T15:14:32.342Z,101380.72
2022-11-13T15:16:36.745Z,101380.34
2022-11-13T15:18:41.163Z,101379.56
2022-11-13T15:20:45.559Z,101379.94
2022-11-13T15:22:49.974Z,101375.6
2022-11-13T15:24:54.407Z,101373.23
2022-11-13T15:26:58.793Z,101373.52
2022-11-13T15:29:03.165Z,101375
2022-11-13T15:31:07.577Z,101368.79
2022-11-13T15:33:12.451Z,101371.92
2022-11-13T15:35:16.819Z,101372.04
2022-11-13T15:37:21.192Z,101366.09
2022-11-13T15:39:25.579Z,101363.2
2022-11-13T15:41:29.972Z,101361.11
2022-11-13T15:43:34.392Z,101367.26
2022-11-13T15:45:45.008Z,101366.55
2022-11-13T15:47:49.413Z,101364.33
2022-11-13T15:50:15.483Z,101361.73
2022-11-13T15:52:20.446Z,101363.36
2022-11-13T15:54:24.836Z,101363.23
2022-11-13T15:56:29.254Z,101369.35
2022-11-13T15:58:35.567Z,101373
2022-11-13T16:00:39.946Z,101373.75
2022-11-13T16:02:44.447Z,101370.45
2022-11-13T16:04:58.024Z,101369.6
2022-11-13T16:07:02.595Z,101375.58
2022-11-13T16:09:07.150Z,101374.5
2022-11-13T16:11:11.535Z,101375.63
2022-11-13T16:13:15.948Z,101374.41
2022-11-13T16:15:20.336Z,101372.38
2022-11-13T16:17:24.756Z,101376.63
2022-11-13T16:19:29.201Z,101370.95
2022-11-13T16:21:33.550Z,101371.98
2022-11-13T16:23:37.914Z,101376.41
2022-11-13T16:25:42.286Z,101374.36
2022-11-13T16:27:46.629Z,101374.44
2022-11-13T16:29:51.002Z,101370.97
2022-11-13T16:31:55.360Z,101364.41
2022-11-13T16:33:59.748Z,101366.16
2022-11-13T16:36:06.689Z,101359.31
2022-11-13T16:38:16.175Z,101354.73
2022-11-13T16:40:20.536Z,101347.69
2022-11-13T16:42:31.081Z,101351.42
2022-11-13T16:44:35.653Z,101348.34
2022-11-13T16:46:40.047Z,101350
2022-11-13T16:48:44.451Z,101349.13
2022-11-13T16:50:49.111Z,101351.56
2022-11-13T16:52:53.516Z,101353.75
2022-11-13T16:55:06.232Z,101354.89
2022-11-13T16:57:11.071Z,101356.88
2022-11-13T16:59:15.493Z,101356.75
2022-11-13T17:01:20.169Z,101356.52
2022-11-13T17:03:24.674Z,101353.82
2022-11-13T17:05:28.993Z,101348.86
2022-11-13T17:07:33.605Z,101348.86
2022-11-13T17:09:38.176Z,101345.04
2022-11-13T17:11:42.632Z,101348.84
2022-11-13T17:13:47.048Z,101342.86
2022-11-13T17:15:51.407Z,101339.03
2022-11-13T17:17:55.790Z,101335.27
2022-11-13T17:20:00.555Z,101338.52
2022-11-13T17:22:04.971Z,101338.44
2022-11-13T17:24:09.360Z,101332.67
2022-11-13T17:26:13.760Z,101331.47
2022-11-13T17:28:18.095Z,101329.89
2022-11-13T17:30:22.497Z,101327.77
2022-11-13T17:32:26.880Z,101329.65
2022-11-13T17:34:31.280Z,101331.51
2022-11-13T17:36:35.698Z,101327.11
2022-11-13T17:38:40.101Z,101330.34
2022-11-13T17:40:44.495Z,101323.14
2022-11-13T17:42:48.999Z,101321.02
2022-11-13T17:44:53.412Z,101316.13
2022-11-13T17:46:57.789Z,101318.08
2022-11-13T17:49:02.246Z,101319.5
2022-11-13T17:51:06.599Z,101318.06
2022-11-13T17:53:10.966Z,101317.5
2022-11-13T17:55:15.381Z,101313.27
2022-11-13T17:57:26.974Z,101316.25
2022-11-13T17:59:31.705Z,101311.72
2022-11-13T18:01:36.252Z,101313.77
2022-11-13T18:03:40.832Z,101316.27
2022-11-13T18:05:45.187Z,101313.25
2022-11-13T18:07:49.578Z,101313.31
2022-11-13T18:09:54.151Z,101308.89
2022-11-13T18:11:58.556Z,101311.11
2022-11-13T18:14:02.992Z,101311.28
2022-11-13T18:16:07.431Z,101306.77
2022-11-13T18:18:11.839Z,101319.5
2022-11-13T18:20:16.187Z,101325.89
2022-11-13T18:22:20.578Z,101323.27
2022-11-13T18:24:25.142Z,101313.41
2022-11-13T18:26:29.734Z,101312.02
2022-11-13T18:28:34.135Z,101312.76
2022-11-13T18:30:38.510Z,101310.01
2022-11-13T18:32:42.935Z,101310.72
2022-11-13T18:34:47.329Z,101309.71
2022-11-13T18:36:51.761Z,101311.88
2022-11-13T18:38:56.230Z,101308.3
2022-11-13T18:41:00.629Z,101305.83
2022-11-13T18:43:05.093Z,101309.64
2022-11-13T18:45:09.526Z,101307.72
2022-11-13T18:47:13.966Z,101309.43
2022-11-13T18:49:18.413Z,101303.73
2022-11-13T18:51:22.777Z,101301.65
2022-11-13T18:53:27.679Z,101298.05
2022-11-13T18:55:32.676Z,101296.84
2022-11-13T18:57:37.062Z,101295.4
2022-11-13T18:59:41.483Z,101295.2
2022-11-13T19:01:46.063Z,101289.78
2022-11-13T19:04:23.472Z,101286.69
2022-11-13T19:06:28.372Z,101286.12
2022-11-13T19:08:37.058Z,101290.53
2022-11-13T19:10:44.309Z,101287.33
2022-11-13T19:12:48.733Z,101295.16
2022-11-13T19:14:53.135Z,101290.42
2022-11-13T19:16:57.517Z,101288.26
2022-11-13T19:19:01.936Z,101292.08
2022-11-13T19:21:06.354Z,101292.95
2022-11-13T19:23:10.719Z,101294.62
2022-11-13T19:25:15.180Z,101293.25
2022-11-13T19:27:19.563Z,101294.45
2022-11-13T19:29:24.069Z,101300.22
2022-11-13T19:31:28.505Z,101298.5
2022-11-13T19:33:32.908Z,101298.16
2022-11-13T19:35:37.321Z,101300.84
2022-11-13T19:37:41.710Z,101303.13
2022-11-13T19:39:46.080Z,101303.33
2022-11-13T19:41:50.464Z,101305.84
2022-11-13T19:43:54.881Z,101305.22
2022-11-13T19:45:59.306Z,101308.46
2022-11-13T19:48:03.751Z,101305.95
2022-11-13T19:50:08.192Z,101307.77
2022-11-13T19:52:12.567Z,101302.95
2022-11-13T19:54:16.996Z,101300.42
2022-11-13T19:56:21.337Z,101300.22
2022-11-13T19:58:25.998Z,101301.47
2022-11-13T20:00:30.943Z,101305.45
2022-11-13T20:02:35.334Z,101306.64
2022-11-13T20:04:39.771Z,101309.17
2022-11-13T20:06:44.368Z,101308.7
2022-11-13T20:08:48.828Z,101307.31
2022-11-13T20:10:53.214Z,101304.53
2022-11-13T20:12:57.751Z,101308.43
2022-11-13T20:15:02.114Z,101301.53
2022-11-13T20:17:06.613Z,101308.88
2022-11-13T20:19:11.015Z,101308.45
2022-11-13T20:21:15.510Z,101311.02
2022-11-13T20:23:20.597Z,101307.77
2022-11-13T20:25:24.994Z,101310.35
2022-11-13T20:27:29.378Z,101310.94
2022-11-13T20:29:33.829Z,101308.98
2022-11-13T20:31:38.234Z,101311.08
2022-11-13T20:33:42.625Z,101308.2
2022-11-13T20:35:47.025Z,101305.2
2022-11-13T20:37:51.416Z,101290.98
2022-11-13T20:39:55.808Z,101290.12
2022-11-13T20:42:00.221Z,101283.77
2022-11-13T20:44:04.650Z,101278.71
2022-11-13T20:46:09.045Z,101275.29
2022-11-13T20:48:13.390Z,101269.06
2022-11-13T20:50:17.799Z,101263.8
2022-11-13T20:52:22.197Z,101273.97
2022-11-13T20:54:26.824Z,101276.5
2022-11-13T20:56:31.182Z,101277.69
2022-11-13T20:58:35.659Z,101271.83
2022-11-13T21:00:40.044Z,101271.72
2022-11-13T21:02:44.414Z,101271.99
2022-11-13T21:04:48.816Z,101272.1
2022-11-13T21:06:53.368Z,101275.84
2022-11-13T21:08:57.830Z,101270.79
2022-11-13T21:11:02.223Z,101272.5
2022-11-13T21:13:06.623Z,101273.17
2022-11-13T21:15:11.077Z,101272.59
2022-11-13T21:17:15.496Z,101268.19
2022-11-13T21:19:19.889Z,101267.05
2022-11-13T21:21:24.300Z,101268.83
2022-11-13T21:23:28.689Z,101269.92
2022-11-13T21:25:33.061Z,101269.05
2022-11-13T21:27:37.439Z,101266.44
2022-11-13T21:29:41.837Z,101260.08
2022-11-13T21:31:46.251Z,101255.25
2022-11-13T21:33:50.821Z,101253.49
2022-11-13T21:35:55.214Z,101249.61
2022-11-13T21:37:59.594Z,101248.2
2022-11-13T21:40:04.349Z,101242.6
2022-11-13T21:42:08.694Z,101243.92
2022-11-13T21:44:13.095Z,101243.55
2022-11-13T21:46:17.453Z,101243.64
2022-11-13T21:48:21.824Z,101235.39
2022-11-13T21:50:26.180Z,101230.9
2022-11-13T21:52:30.555Z,101244
2022-11-13T21:54:35.006Z,101244.36
2022-11-13T21:56:39.380Z,101245.58
2022-11-13T21:58:43.758Z,101246.36
2022-11-13T22:00:48.106Z,101244.8
2022-11-13T22:02:52.450Z,101240.48
2022-11-13T22:04:56.871Z,101241.09
2022-11-13T22:07:01.369Z,101243.58
2022-11-13T22:09:05.884Z,101240.57
2022-11-13T22:11:10.260Z,101239.7
2022-11-13T22:13:14.609Z,101234.16
2022-11-13T22:15:19.027Z,101241.19
2022-11-13T22:17:23.472Z,101243.71
2022-11-13T22:19:35.877Z,101241.1
2022-11-13T22:21:40.476Z,101239.91
2022-11-13T22:23:44.821Z,101243.61
2022-11-13T22:25:49.203Z,101239.05
2022-11-13T22:27:58.040Z,101238.37
2022-11-13T22:30:02.462Z,101238.59
2022-11-13T22:32:06.860Z,101232.38
2022-11-13T22:34:11.213Z,101233.11
2022-11-13T22:36:15.624Z,101231.95
2022-11-13T22:38:19.991Z,101229.38
2022-11-13T22:40:24.414Z,101229.1
2022-11-13T22:42:28.808Z,101230.28
2022-11-13T22:44:56.704Z,101228.59
2022-11-13T22:47:01.230Z,101228.41
2022-11-13T22:49:05.642Z,101222.95
2022-11-13T22:51:10.080Z,101219.77
2022-11-13T22:53:14.499Z,101220.88
2022-11-13T22:55:18.863Z,101220.72
2022-11-13T22:57:23.268Z,101220.44
2022-11-13T22:59:27.702Z,101216.09
2022-11-13T23:01:32.082Z,101218.34
2022-11-13T23:03:36.658Z,101220.77
2022-11-13T23:05:41.240Z,101213.78
2022-11-13T23:07:45.646Z,101215.65
2022-11-13T23:09:49.989Z,101214.84
2022-11-13T23:11:54.361Z,101216.25
2022-11-13T23:13:58.762Z,101215.86
2022-11-13T23:16:03.190Z,101217.38
2022-11-13T23:18:10.858Z,101217.98
2022-11-13T23:20:15.214Z,101212.69
2022-11-13T23:22:19.588Z,101211.69
2022-11-13T23:24:23.978Z,101212.69
2022-11-13T23:26:28.431Z,101208.86
2022-11-13T23:28:33.255Z,101209.66
2022-11-13T23:30:37.636Z,101206.06
2022-11-13T23:32:42.032Z,101209.02
2022-11-13T23:35:01.752Z,101205.19
2022-11-13T23:37:06.171Z,101199.34
2022-11-13T23:39:10.565Z,101189.48
2022-11-13T23:41:14.947Z,101190.11
2022-11-13T23:43:19.305Z,101188.02
2022-11-13T23:45:23.726Z,101184.14
2022-11-13T23:47:28.117Z,101176.66
2022-11-13T23:49:32.472Z,101174.61
2022-11-13T23:51:36.868Z,101173.62